Time;durP1;ratioP1;P1;durP2;ratioP2;P2;SDS_P1;SDS_P2;PMS_P1;PMS_P2;Temp;Humidity;BMP_temperature;BMP_pressure;BME280_temperature;BME280_humidity;BME280_pressure;Samples;Min_cycle;Max_cycle;Signal;HPM_P1;HPM_P2
2022/10/24 00:00:41;;;;;;;5.20;1.08;;;;;;;15.46;100.00;96149.06;5039037;28;20913;-76
2022/10/24 00:03:08;;;;;;;3.22;1.00;;;;;;;15.37;100.00;96152.97;5038368;28;20700;-73
2022/10/24 00:05:34;;;;;;;4.85;1.05;;;;;;;15.36;100.00;96152.19;5039485;28;20216;-74
2022/10/24 00:08:01;;;;;;;3.35;1.00;;;;;;;15.30;100.00;96157.50;5039433;28;20216;-74
2022/10/24 00:10:27;;;;;;;6.95;1.13;;;;;;;15.33;100.00;96159.75;5039258;28;20209;-74
2022/10/24 00:12:54;;;;;;;4.72;0.90;;;;;;;15.33;100.00;96160.53;5037171;28;20218;-76
2022/10/24 00:15:22;;;;;;;2.83;1.10;;;;;;;15.38;100.00;96154.63;5038975;28;20205;-74
2022/10/24 00:17:49;;;;;;;2.78;1.27;;;;;;;15.36;100.00;96154.84;5039222;28;20205;-74
2022/10/24 00:20:16;;;;;;;5.80;1.60;;;;;;;15.32;100.00;96150.13;5038842;28;20201;-75
2022/10/24 00:22:42;;;;;;;3.92;1.00;;;;;;;15.29;100.00;96138.09;5038414;28;20240;-73
2022/10/24 00:25:09;;;;;;;4.57;1.73;;;;;;;15.30;100.00;96137.06;5038531;28;20685;-75
2022/10/24 00:27:36;;;;;;;10.25;1.00;;;;;;;15.34;100.00;96146.25;5038633;28;20206;-73
2022/10/24 00:30:03;;;;;;;3.90;0.98;;;;;;;15.41;100.00;96152.38;5038946;28;20209;-73
2022/10/24 00:32:30;;;;;;;3.75;1.20;;;;;;;15.31;100.00;96146.69;5037993;28;20225;-74
2022/10/24 00:34:58;;;;;;;2.85;1.23;;;;;;;15.42;100.00;96147.88;5038555;28;20209;-74
2022/10/24 00:37:24;;;;;;;1.85;1.10;;;;;;;15.28;100.00;96147.06;5038462;28;20691;-75
2022/10/24 00:39:51;;;;;;;3.45;1.20;;;;;;;15.35;100.00;96147.06;5038738;28;20197;-74
2022/10/24 00:42:17;;;;;;;2.55;1.20;;;;;;;15.41;100.00;96141.75;5038104;28;20217;-74
2022/10/24 00:44:44;;;;;;;4.03;1.42;;;;;;;15.39;100.00;96142.97;5038277;28;20330;-75
2022/10/24 00:47:14;;;;;;;4.43;1.58;;;;;;;15.40;100.00;96137.47;5038684;28;20209;-74
2022/10/24 00:49:48;;;;;;;2.85;1.40;;;;;;;15.40;100.00;96133.97;5038758;28;20216;-74
2022/10/24 00:52:24;;;;;;;2.75;1.33;;;;;;;15.38;100.00;96141.34;5037370;28;20227;-76
2022/10/24 00:54:53;;;;;;;8.15;1.23;;;;;;;15.36;100.00;96138.06;5038665;28;20197;-74
2022/10/24 00:57:22;;;;;;;8.10;1.30;;;;;;;15.31;100.00;96141.38;5038089;28;20197;-75
2022/10/24 00:59:53;;;;;;;6.00;1.48;;;;;;;15.35;100.00;96136.44;5038257;28;20216;-73
2022/10/24 01:02:20;;;;;;;3.78;1.40;;;;;;;15.30;100.00;96137.06;5037059;28;20232;-76
2022/10/24 01:04:47;;;;;;;7.05;1.60;;;;;;;15.26;100.00;96138.50;5038350;28;20233;-74
2022/10/24 01:07:27;;;;;;;9.20;1.50;;;;;;;15.29;100.00;96131.97;5038091;28;20205;-74
2022/10/24 01:10:12;;;;;;;4.95;1.40;;;;;;;15.30;100.00;96128.31;5037589;28;20200;-73
2022/10/24 01:12:50;;;;;;;3.50;1.33;;;;;;;15.28;100.00;96135.66;5037346;28;20229;-72
2022/10/24 01:15:20;;;;;;;4.20;1.30;;;;;;;15.21;100.00;96140.16;5038061;28;21097;-71
2022/10/24 01:17:56;;;;;;;2.92;1.50;;;;;;;15.23;100.00;96132.78;5038303;28;20255;-73
2022/10/24 01:20:38;;;;;;;6.28;1.60;;;;;;;15.28;100.00;96127.69;5038205;28;20283;-73
2022/10/24 01:23:27;;;;;;;6.28;1.25;;;;;;;15.35;100.00;96123.16;5036950;28;20248;-71
2022/10/24 01:26:10;;;;;;;5.85;1.50;;;;;;;15.30;100.00;96123.81;5034652;28;20216;-72
2022/10/24 01:28:44;;;;;;;5.05;1.60;;;;;;;15.26;100.00;96127.91;5037609;28;20700;-73
2022/10/24 01:31:17;;;;;;;4.45;1.30;;;;;;;15.12;100.00;96133.41;5037624;28;20662;-74
2022/10/24 01:33:49;;;;;;;7.78;1.50;;;;;;;15.13;100.00;96119.09;5036894;28;20221;-73
2022/10/24 01:36:21;;;;;;;6.47;1.30;;;;;;;15.14;100.00;96131.34;5037809;28;20193;-74
2022/10/24 01:38:54;;;;;;;3.65;1.15;;;;;;;15.13;100.00;96126.25;5037643;28;20197;-72
2022/10/24 01:41:23;;;;;;;8.75;1.65;;;;;;;15.16;100.00;96129.31;5037426;28;20463;-73
2022/10/24 01:43:53;;;;;;;3.45;1.35;;;;;;;15.19;100.00;96125.44;5036798;28;20233;-71
2022/10/24 01:46:26;;;;;;;8.68;1.33;;;;;;;15.23;100.00;96122.19;5037159;28;20201;-71
2022/10/24 01:48:57;;;;;;;9.98;1.45;;;;;;;15.18;100.00;96124.59;5037267;28;20213;-71
2022/10/24 01:51:28;;;;;;;5.05;1.50;;;;;;;15.17;100.00;96125.63;5037601;28;20208;-71
2022/10/24 01:53:56;;;;;;;4.10;1.30;;;;;;;15.03;100.00;96126.69;5036465;28;20236;-71
2022/10/24 01:56:24;;;;;;;3.38;1.42;;;;;;;15.11;100.00;96123.81;5037660;28;20204;-73
2022/10/24 01:58:50;;;;;;;6.28;1.77;;;;;;;14.98;100.00;96130.97;5037529;28;20205;-72
2022/10/24 02:01:22;;;;;;;4.53;1.67;;;;;;;15.07;100.00;96122.59;5037080;28;20209;-73
2022/10/24 02:03:54;;;;;;;4.50;1.60;;;;;;;15.06;100.00;96122.78;5036311;28;21327;-73
2022/10/24 02:06:25;;;;;;;6.50;1.40;;;;;;;15.09;100.00;96125.03;5037537;28;20201;-73
2022/10/24 02:08:55;;;;;;;2.78;1.33;;;;;;;15.05;100.00;96124.63;5037137;28;20215;-73
2022/10/24 02:11:22;;;;;;;7.75;1.70;;;;;;;15.00;100.00;96118.31;5036774;28;20701;-74
2022/10/24 02:13:53;;;;;;;7.80;1.55;;;;;;;15.07;100.00;96133.22;5036378;28;20942;-73
2022/10/24 02:16:21;;;;;;;3.85;1.48;;;;;;;15.08;100.00;96129.53;5037391;28;20193;-74
2022/10/24 02:18:51;;;;;;;5.25;1.38;;;;;;;15.13;100.00;96129.72;5037234;28;20206;-73
2022/10/24 02:21:28;;;;;;;8.23;1.80;;;;;;;15.13;100.00;96131.56;5036856;28;20201;-74
2022/10/24 02:24:01;;;;;;;11.57;2.42;;;;;;;15.10;100.00;96132.78;5035885;28;20220;-75
2022/10/24 02:26:33;;;;;;;9.20;1.23;;;;;;;15.13;100.00;96132.38;5037192;28;20598;-74
2022/10/24 02:29:07;;;;;;;7.63;2.25;;;;;;;15.19;100.00;96130.75;5037225;28;20249;-74
2022/10/24 02:31:40;;;;;;;8.15;1.75;;;;;;;15.27;100.00;96131.34;5036826;28;20673;-74
2022/10/24 02:34:09;;;;;;;7.38;1.52;;;;;;;15.17;100.00;96138.91;5036124;28;20220;-73
2022/10/24 02:36:39;;;;;;;6.85;1.33;;;;;;;15.21;100.00;96128.72;5037683;28;20961;-75
2022/10/24 02:39:09;;;;;;;3.85;1.60;;;;;;;15.19;100.00;96128.91;5040963;28;20216;-74
2022/10/24 02:41:39;;;;;;;8.13;1.92;;;;;;;15.24;100.00;96135.25;5039419;28;20614;-74
2022/10/24 02:44:07;;;;;;;6.82;1.65;;;;;;;15.29;100.00;96137.28;5040156;28;20229;-74
2022/10/24 02:46:36;;;;;;;6.28;1.63;;;;;;;15.33;100.00;96136.66;5041157;28;20205;-75
2022/10/24 02:49:03;;;;;;;6.43;1.52;;;;;;;15.27;100.00;96134.00;5040573;28;20209;-73
2022/10/24 02:51:32;;;;;;;6.53;1.35;;;;;;;15.24;100.00;96129.94;5040428;28;20201;-76
2022/10/24 02:54:01;;;;;;;4.70;1.77;;;;;;;15.33;100.00;96127.88;5039720;28;20732;-74
2022/10/24 02:56:28;;;;;;;8.75;1.30;;;;;;;15.32;100.00;96128.91;5040672;28;20542;-75
2022/10/24 02:58:54;;;;;;;4.93;1.25;;;;;;;15.29;100.00;96127.47;5040309;28;20212;-72
2022/10/24 03:01:21;;;;;;;4.78;1.45;;;;;;;15.30;100.00;96128.31;5040465;28;20733;-71
2022/10/24 03:03:49;;;;;;;5.28;2.08;;;;;;;15.26;100.00;96127.06;5039353;28;20233;-71
2022/10/24 03:06:15;;;;;;;3.83;1.20;;;;;;;15.18;100.00;96129.91;5039765;28;20688;-74
2022/10/24 03:08:42;;;;;;;8.15;1.83;;;;;;;15.25;100.00;96120.16;5040528;28;20204;-73
2022/10/24 03:11:08;;;;;;;9.40;1.70;;;;;;;15.28;100.00;96131.13;5040469;28;20206;-73
2022/10/24 03:13:35;;;;;;;5.70;1.75;;;;;;;15.26;100.00;96127.91;5039102;28;20227;-74
2022/10/24 03:16:03;;;;;;;4.55;1.60;;;;;;;15.31;100.00;96129.91;5040555;28;20680;-75
2022/10/24 03:18:30;;;;;;;7.70;1.95;;;;;;;15.16;100.00;96124.00;5040624;28;20220;-74
2022/10/24 03:20:58;;;;;;;7.20;1.67;;;;;;;15.19;100.00;96136.06;5039872;28;21047;-73
2022/10/24 03:23:27;;;;;;;5.82;1.35;;;;;;;15.17;100.00;96146.84;5039278;28;20228;-74
2022/10/24 03:25:54;;;;;;;6.22;1.75;;;;;;;15.19;100.00;96144.81;5039964;28;20254;-75
2022/10/24 03:28:20;;;;;;;4.32;1.55;;;;;;;15.19;100.00;96144.81;5039940;28;20197;-74
2022/10/24 03:30:47;;;;;;;4.28;1.40;;;;;;;15.24;100.00;96137.91;5039857;28;20209;-74
2022/10/24 03:33:13;;;;;;;4.78;1.65;;;;;;;15.21;100.00;96118.94;5038857;28;20225;-74
2022/10/24 03:35:40;;;;;;;6.57;1.45;;;;;;;15.28;100.00;96125.03;5040266;28;20674;-74
2022/10/24 03:38:08;;;;;;;3.85;1.55;;;;;;;15.28;100.00;96122.38;5039633;28;20201;-74
2022/10/24 03:40:35;;;;;;;4.35;1.65;;;;;;;15.21;100.00;96132.22;5039605;28;20205;-74
2022/10/24 03:43:02;;;;;;;3.90;1.60;;;;;;;15.21;100.00;96128.72;5038571;28;20751;-74
2022/10/24 03:45:28;;;;;;;6.70;1.48;;;;;;;15.16;100.00;96149.72;5039339;28;20217;-73
2022/10/24 03:47:55;;;;;;;7.43;1.70;;;;;;;15.17;100.00;96144.19;5039483;28;20205;-73
2022/10/24 03:50:21;;;;;;;6.45;1.63;;;;;;;15.25;100.00;96144.84;5039409;28;20209;-74
2022/10/24 03:52:48;;;;;;;4.75;1.50;;;;;;;15.26;100.00;96158.91;5039361;28;20229;-74
2022/10/24 03:55:16;;;;;;;6.50;1.85;;;;;;;15.34;100.00;96164.03;5039218;28;20627;-73
2022/10/24 03:57:42;;;;;;;15.00;1.60;;;;;;;15.19;100.00;96151.97;5039197;28;20215;-75
2022/10/24 04:00:10;;;;;;;4.10;1.67;;;;;;;15.24;100.00;96153.81;5039442;28;20217;-75
2022/10/24 04:02:37;;;;;;;10.07;1.65;;;;;;;15.15;100.00;96156.03;5038565;28;20225;-73
2022/10/24 04:05:04;;;;;;;4.47;1.48;;;;;;;15.18;100.00;96156.47;5037541;28;20235;-74
2022/10/24 04:07:30;;;;;;;18.85;1.88;;;;;;;15.09;100.00;96149.72;5039271;28;20201;-73
2022/10/24 04:09:57;;;;;;;8.30;2.35;;;;;;;15.14;100.00;96143.81;5039282;28;20212;-73
2022/10/24 04:12:25;;;;;;;7.68;1.70;;;;;;;15.16;100.00;96142.59;5038390;28;20220;-74
2022/10/24 04:14:51;;;;;;;10.20;1.90;;;;;;;15.18;100.00;96143.19;5039218;28;20201;-74
2022/10/24 04:17:18;;;;;;;7.32;1.85;;;;;;;15.15;100.00;96146.25;5039066;28;20204;-74
2022/10/24 04:19:45;;;;;;;7.30;1.92;;;;;;;15.20;100.00;96158.91;5039020;28;20219;-73
2022/10/24 04:22:11;;;;;;;5.57;2.03;;;;;;;15.19;100.00;96152.78;5038644;28;20225;-74
2022/10/24 04:24:38;;;;;;;8.70;1.52;;;;;;;15.23;100.00;96164.66;5038586;28;21009;-73
2022/10/24 04:27:04;;;;;;;6.72;1.73;;;;;;;15.24;100.00;96156.47;5039300;28;20209;-73
2022/10/24 04:29:32;;;;;;;9.05;1.70;;;;;;;15.31;100.00;96161.78;5038454;28;20204;-74
2022/10/24 04:31:59;;;;;;;8.20;2.40;;;;;;;15.24;100.00;96159.13;5038734;28;20212;-73
2022/10/24 04:34:26;;;;;;;9.43;2.42;;;;;;;15.16;100.00;96170.97;5038514;28;20205;-74
2022/10/24 04:36:52;;;;;;;8.00;2.00;;;;;;;15.19;100.00;96182.00;5038694;28;20581;-74
2022/10/24 04:39:19;;;;;;;12.07;2.35;;;;;;;15.27;100.00;96166.69;5038509;28;20212;-73
2022/10/24 04:41:46;;;;;;;10.73;2.25;;;;;;;15.28;100.00;96148.91;5038840;28;20209;-74
2022/10/24 04:44:13;;;;;;;8.80;2.17;;;;;;;15.39;100.00;96154.41;5037889;28;20232;-73
2022/10/24 04:46:41;;;;;;;12.10;2.30;;;;;;;15.44;100.00;96148.47;5038221;28;20209;-72
2022/10/24 04:49:08;;;;;;;10.52;2.05;;;;;;;15.31;100.00;96145.84;5038382;28;21015;-73
2022/10/24 04:51:35;;;;;;;10.70;2.20;;;;;;;15.31;100.00;96143.19;5038112;28;20580;-74
2022/10/24 04:54:02;;;;;;;6.07;2.13;;;;;;;15.23;100.00;96156.69;5037725;28;21280;-73
2022/10/24 04:56:28;;;;;;;8.35;2.60;;;;;;;15.29;100.00;96158.53;5037734;28;20197;-74
2022/10/24 04:58:55;;;;;;;9.70;2.58;;;;;;;15.26;100.00;96172.19;5038169;28;20200;-73
2022/10/24 05:01:21;;;;;;;12.15;2.40;;;;;;;15.29;100.00;96169.16;5038290;28;20205;-73
2022/10/24 05:03:49;;;;;;;7.55;1.88;;;;;;;15.36;100.00;96162.81;5037461;28;20225;-73
2022/10/24 05:06:16;;;;;;;11.25;2.15;;;;;;;15.29;100.00;96169.16;5037756;28;20228;-74
2022/10/24 05:08:42;;;;;;;6.57;2.22;;;;;;;15.22;100.00;96165.66;5038146;28;20205;-73
2022/10/24 05:11:10;;;;;;;14.35;2.30;;;;;;;15.27;100.00;96168.53;5038201;28;20725;-73
2022/10/24 05:13:36;;;;;;;8.75;1.95;;;;;;;15.24;100.00;96160.19;5037110;28;20279;-73
2022/10/24 05:16:03;;;;;;;14.55;2.47;;;;;;;15.22;100.00;96151.59;5038360;28;20197;-73
2022/10/24 05:18:30;;;;;;;5.63;2.08;;;;;;;15.22;100.00;96148.94;5038266;28;20205;-74
2022/10/24 05:20:58;;;;;;;6.32;1.90;;;;;;;15.33;100.00;96149.13;5037925;28;20205;-73
2022/10/24 05:23:25;;;;;;;4.85;1.90;;;;;;;15.27;100.00;96165.88;5036986;28;20217;-74
2022/10/24 05:25:51;;;;;;;7.75;1.70;;;;;;;15.23;100.00;96163.84;5037793;28;20239;-72
2022/10/24 05:28:18;;;;;;;5.50;1.58;;;;;;;15.14;100.00;96165.88;5037909;28;20205;-74
2022/10/24 05:30:45;;;;;;;6.78;2.00;;;;;;;15.28;100.00;96181.59;5037697;28;20602;-73
2022/10/24 05:33:12;;;;;;;10.70;1.33;;;;;;;15.20;100.00;96173.00;5036630;28;20233;-73
2022/10/24 05:35:40;;;;;;;9.45;1.63;;;;;;;15.29;100.00;96190.38;5037388;28;21055;-73
2022/10/24 05:38:08;;;;;;;10.00;1.80;;;;;;;15.42;100.00;96191.16;5037412;28;20778;-73
2022/10/24 05:40:35;;;;;;;5.25;1.45;;;;;;;15.26;100.00;96183.66;5037520;28;20200;-73
2022/10/24 05:43:01;;;;;;;6.30;1.70;;;;;;;15.20;100.00;96178.31;5036253;28;20239;-73
2022/10/24 05:45:28;;;;;;;3.17;1.33;;;;;;;15.29;100.00;96169.16;5037461;28;20217;-73
2022/10/24 05:47:54;;;;;;;9.60;1.98;;;;;;;15.28;100.00;96154.22;5036855;28;21044;-73
2022/10/24 05:50:21;;;;;;;8.15;1.58;;;;;;;15.24;100.00;96124.63;5037360;28;20202;-73
2022/10/24 05:52:48;;;;;;;13.35;1.75;;;;;;;15.25;100.00;96117.50;5036205;28;20225;-73
2022/10/24 05:55:16;;;;;;;14.15;2.95;;;;;;;15.36;100.00;96132.75;5037571;28;20194;-73
2022/10/24 05:57:43;;;;;;;13.25;2.78;;;;;;;15.20;100.00;96146.47;5037112;28;20245;-73
2022/10/24 06:00:13;;;;;;;10.43;2.50;;;;;;;15.17;100.00;96162.78;5037349;28;20208;-72
2022/10/24 06:02:40;;;;;;;9.57;2.60;;;;;;;15.15;100.00;96167.50;5035871;28;20244;-73
2022/10/24 06:05:07;;;;;;;9.60;2.20;;;;;;;15.02;100.00;96194.06;5037083;28;20714;-73
2022/10/24 06:07:34;;;;;;;10.55;1.85;;;;;;;14.94;100.00;96186.31;5036662;28;20209;-73
2022/10/24 06:10:01;;;;;;;6.55;2.90;;;;;;;14.97;100.00;96185.88;5036951;28;20205;-73
2022/10/24 06:12:29;;;;;;;8.77;2.33;;;;;;;15.13;100.00;96180.16;5035447;28;20224;-73
2022/10/24 06:14:56;;;;;;;8.70;2.75;;;;;;;15.10;100.00;96171.81;5036809;28;20611;-72
2022/10/24 06:17:22;;;;;;;6.07;2.10;;;;;;;15.13;100.00;96161.56;5037074;28;20201;-73
2022/10/24 06:19:49;;;;;;;8.20;1.98;;;;;;;15.19;100.00;96163.41;5037113;28;20203;-73
2022/10/24 06:22:17;;;;;;;6.82;2.20;;;;;;;15.15;100.00;96156.03;5036685;28;20221;-73
2022/10/24 06:24:43;;;;;;;5.90;1.75;;;;;;;15.17;100.00;96149.50;5036702;28;20228;-74
2022/10/24 06:27:10;;;;;;;5.85;1.58;;;;;;;15.18;100.00;96145.84;5036756;28;20209;-73
2022/10/24 06:29:38;;;;;;;7.18;1.77;;;;;;;15.24;100.00;96137.09;5036889;28;20208;-73
2022/10/24 06:32:04;;;;;;;6.00;1.67;;;;;;;15.07;100.00;96138.53;5036818;28;20236;-72
2022/10/24 06:34:31;;;;;;;9.43;2.05;;;;;;;15.18;100.00;96129.91;5036260;28;20215;-73
2022/10/24 06:36:57;;;;;;;8.82;2.17;;;;;;;15.05;100.00;96119.31;5036870;28;20205;-73
2022/10/24 06:39:24;;;;;;;7.47;2.65;;;;;;;15.07;100.00;96121.78;5036784;28;20205;-73
2022/10/24 06:41:50;;;;;;;6.55;2.70;;;;;;;15.02;100.00;96130.38;5036311;28;20208;-73
2022/10/24 06:44:17;;;;;;;12.00;3.22;;;;;;;15.00;100.00;96137.69;5036003;28;20960;-73
2022/10/24 06:46:45;;;;;;;12.65;3.50;;;;;;;15.11;100.00;96139.75;5036633;28;20232;-72
2022/10/24 06:49:12;;;;;;;10.82;3.80;;;;;;;15.14;100.00;96147.28;5036635;28;20223;-73
2022/10/24 06:51:39;;;;;;;9.45;2.97;;;;;;;15.12;100.00;96149.34;5036305;28;20727;-73
2022/10/24 06:54:05;;;;;;;8.88;2.78;;;;;;;15.16;100.00;96150.56;5036892;28;20228;-73
2022/10/24 06:56:32;;;;;;;11.20;2.70;;;;;;;15.16;100.00;96153.22;5037289;28;20215;-73
2022/10/24 06:58:59;;;;;;;10.77;2.80;;;;;;;15.19;100.00;96149.34;5037108;28;20300;-73
2022/10/24 07:01:26;;;;;;;7.78;1.67;;;;;;;15.08;100.00;96181.78;5037719;28;20204;-73
2022/10/24 07:03:54;;;;;;;7.78;2.08;;;;;;;15.24;100.00;96180.38;5036412;28;20217;-73
2022/10/24 07:06:23;;;;;;;7.53;2.33;;;;;;;15.19;100.00;96197.91;5037484;28;21352;-73
2022/10/24 07:08:51;;;;;;;7.75;2.28;;;;;;;15.24;100.00;96196.28;5037023;28;20213;-73
2022/10/24 07:11:18;;;;;;;6.90;1.60;;;;;;;15.25;100.00;96189.97;5037552;28;20208;-73
2022/10/24 07:13:44;;;;;;;4.65;1.90;;;;;;;15.32;100.00;96185.50;5036766;28;20728;-73
2022/10/24 07:16:11;;;;;;;9.40;1.92;;;;;;;15.36;100.00;96186.69;5037449;28;20209;-73
2022/10/24 07:18:38;;;;;;;7.18;1.75;;;;;;;15.38;100.00;96181.19;5037161;28;20205;-73
2022/10/24 07:21:08;;;;;;;4.60;1.98;;;;;;;15.41;100.00;96196.69;5036587;28;20227;-73
2022/10/24 07:23:35;;;;;;;6.85;2.03;;;;;;;15.30;100.00;96208.75;5037634;28;20231;-73
2022/10/24 07:26:04;;;;;;;7.80;2.47;;;;;;;15.35;100.00;96216.91;5040937;28;20221;-73
2022/10/24 07:28:30;;;;;;;7.00;2.20;;;;;;;15.28;100.00;96218.75;5041431;28;20579;-73
2022/10/24 07:30:57;;;;;;;9.65;2.88;;;;;;;15.26;100.00;96223.47;5041269;28;20212;-73
2022/10/24 07:33:24;;;;;;;8.25;2.25;;;;;;;15.33;100.00;96212.84;5040668;28;20217;-73
2022/10/24 07:35:51;;;;;;;11.43;2.20;;;;;;;15.41;100.00;96216.09;5040535;28;20202;-73
2022/10/24 07:38:18;;;;;;;5.30;2.13;;;;;;;15.44;100.00;96214.84;5041177;28;20197;-73
2022/10/24 07:40:45;;;;;;;7.95;2.15;;;;;;;15.47;100.00;96201.97;5040601;28;20209;-73
2022/10/24 07:43:12;;;;;;;10.02;2.20;;;;;;;15.45;100.00;96196.06;5039789;28;20228;-73
2022/10/24 07:45:39;;;;;;;8.07;2.20;;;;;;;15.49;100.00;96196.44;5041099;28;20577;-73
2022/10/24 07:48:06;;;;;;;5.25;1.63;;;;;;;15.46;100.00;96199.53;5040226;28;20217;-73
2022/10/24 07:50:33;;;;;;;7.25;2.08;;;;;;;15.43;100.00;96198.09;5040460;28;20213;-73
2022/10/24 07:52:59;;;;;;;7.53;2.10;;;;;;;15.29;100.00;96199.16;5039547;28;21087;-73
2022/10/24 07:55:27;;;;;;;7.07;2.25;;;;;;;15.40;100.00;96192.38;5041213;28;20193;-73
2022/10/24 07:57:54;;;;;;;5.93;1.90;;;;;;;15.41;100.00;96183.41;5040714;28;20227;-73
2022/10/24 08:00:21;;;;;;;3.83;1.70;;;;;;;15.55;100.00;96163.75;5040420;28;20205;-73
2022/10/24 08:02:47;;;;;;;9.73;3.55;;;;;;;15.47;100.00;96153.38;5039973;28;20225;-73
2022/10/24 08:05:14;;;;;;;10.43;3.10;;;;;;;15.50;100.00;96156.44;5040407;28;21275;-73
2022/10/24 08:07:40;;;;;;;8.07;2.88;;;;;;;15.46;100.00;96165.00;5040219;28;20201;-73
2022/10/24 08:10:10;;;;;;;6.95;2.25;;;;;;;15.59;100.00;96175.59;5040244;28;20201;-73
2022/10/24 08:12:38;;;;;;;9.82;2.28;;;;;;;15.62;100.00;96159.25;5039724;28;20229;-73
2022/10/24 08:15:06;;;;;;;8.88;2.95;;;;;;;15.67;100.00;96148.78;5040139;28;20626;-73
2022/10/24 08:17:33;;;;;;;11.45;3.78;;;;;;;15.68;100.00;96153.09;5039659;28;20266;-73
2022/10/24 08:19:59;;;;;;;10.70;2.92;;;;;;;15.71;100.00;96160.66;5039981;28;20201;-73
2022/10/24 08:22:26;;;;;;;12.20;2.22;;;;;;;15.63;100.00;96151.06;5039549;28;20221;-73
2022/10/24 08:24:52;;;;;;;7.47;2.20;;;;;;;15.74;100.00;96168.19;5039849;28;20201;-73
2022/10/24 08:27:19;;;;;;;7.68;2.10;;;;;;;15.69;100.00;96170.66;5039237;28;20231;-73
2022/10/24 08:29:47;;;;;;;8.43;2.58;;;;;;;15.80;100.00;96170.03;5039764;28;20201;-73
2022/10/24 08:32:13;;;;;;;9.25;2.28;;;;;;;15.79;100.00;96173.69;5039695;28;20228;-73
2022/10/24 08:34:40;;;;;;;7.78;2.00;;;;;;;15.80;100.00;96178.81;5038171;28;20259;-73
2022/10/24 08:37:06;;;;;;;7.88;1.80;;;;;;;15.77;100.00;96189.84;5039603;28;20205;-72
2022/10/24 08:39:33;;;;;;;9.00;2.15;;;;;;;15.80;100.00;96185.97;5039985;28;20232;-72
2022/10/24 08:42:03;;;;;;;10.40;2.05;;;;;;;15.90;100.00;96195.94;5039088;28;20215;-72
2022/10/24 08:44:34;;;;;;;10.23;2.25;;;;;;;15.96;100.00;96188.94;5037771;28;20666;-72
2022/10/24 08:47:08;;;;;;;9.77;2.72;;;;;;;16.16;100.00;96198.47;5038798;28;20235;-72
2022/10/24 08:49:40;;;;;;;8.65;3.15;;;;;;;16.13;100.00;96190.13;5038128;28;20212;-73
2022/10/24 08:52:17;;;;;;;9.15;2.92;;;;;;;16.30;100.00;96200.06;5037199;28;20221;-73
2022/10/24 08:54:45;;;;;;;11.60;3.00;;;;;;;16.40;100.00;96189.78;5037620;28;20201;-73
2022/10/24 08:57:28;;;;;;;7.35;2.85;;;;;;;16.46;100.00;96190.75;5037679;28;20218;-73
2022/10/24 08:59:59;;;;;;;9.30;3.08;;;;;;;16.37;100.00;96189.38;5038393;28;20568;-73
2022/10/24 09:02:31;;;;;;;10.93;3.72;;;;;;;16.47;100.00;96187.91;5037319;28;20221;-73
2022/10/24 09:05:02;;;;;;;9.95;3.22;;;;;;;16.42;100.00;96178.91;5038303;28;20209;-73
2022/10/24 09:07:28;;;;;;;7.68;2.60;;;;;;;16.37;100.00;96176.91;5038124;28;20697;-72
2022/10/24 09:10:04;;;;;;;7.35;2.17;;;;;;;16.48;100.00;96170.91;5037743;28;20205;-72
2022/10/24 09:12:31;;;;;;;4.25;1.90;;;;;;;16.50;100.00;96182.97;5037215;28;20717;-72
2022/10/24 09:14:59;;;;;;;6.82;1.77;;;;;;;16.53;100.00;96177.22;5038111;28;20201;-73
2022/10/24 09:17:31;;;;;;;12.55;2.20;;;;;;;16.70;100.00;96156.22;5038118;28;20591;-73
2022/10/24 09:20:00;;;;;;;6.70;2.47;;;;;;;16.68;100.00;96174.25;5037787;28;20216;-73
2022/10/24 09:22:30;;;;;;;9.68;2.08;;;;;;;16.68;100.00;96211.50;5037478;28;20595;-73
2022/10/24 09:25:01;;;;;;;16.00;3.13;;;;;;;16.63;100.00;96230.75;5037867;28;20212;-73
2022/10/24 09:27:29;;;;;;;7.35;1.30;;;;;;;16.59;100.00;96256.16;5038018;28;20219;-73
2022/10/24 09:29:57;;;;;;;5.53;1.40;;;;;;;16.64;100.00;96258.19;5037616;28;20209;-73
2022/10/24 09:32:26;;;;;;;6.07;2.10;;;;;;;16.58;100.00;96259.03;5036980;28;20229;-74
2022/10/24 09:34:54;;;;;;;5.28;1.52;;;;;;;16.59;100.00;96261.47;5037335;28;20205;-73
2022/10/24 09:37:39;;;;;;;3.42;1.58;;;;;;;16.57;100.00;96260.91;5037906;28;20205;-73
2022/10/24 09:40:16;;;;;;;10.18;1.80;;;;;;;16.47;100.00;96257.06;5037265;28;20227;-73
2022/10/24 09:42:49;;;;;;;8.77;2.40;;;;;;;16.47;100.00;96259.72;5036817;28;20231;-73
2022/10/24 09:45:27;;;;;;;5.05;1.92;;;;;;;16.51;100.00;96263.59;5036877;28;20556;-73
2022/10/24 09:47:56;;;;;;;8.30;1.42;;;;;;;16.45;100.00;96268.94;5037025;28;20205;-73
2022/10/24 09:50:25;;;;;;;4.75;1.60;;;;;;;16.46;100.00;96270.56;5036619;28;20205;-73
2022/10/24 09:52:53;;;;;;;6.40;2.28;;;;;;;16.43;100.00;96271.78;5036643;28;20229;-73
2022/10/24 09:55:23;;;;;;;3.28;1.90;;;;;;;16.46;100.00;96287.34;5037727;28;20573;-73
2022/10/24 09:57:53;;;;;;;9.05;1.58;;;;;;;16.55;100.00;96297.53;5037563;28;20197;-73
2022/10/24 10:00:22;;;;;;;1.92;1.30;;;;;;;16.43;100.00;96298.41;5037284;28;20201;-73
2022/10/24 10:03:01;;;;;;;4.57;1.77;;;;;;;16.42;100.00;96302.09;5036334;28;20585;-73
2022/10/24 10:05:42;;;;;;;7.18;1.65;;;;;;;16.23;100.00;96289.66;5037142;28;20192;-73
2022/10/24 10:08:12;;;;;;;6.57;2.13;;;;;;;16.30;100.00;96271.06;5037295;28;20917;-73
2022/10/24 10:10:38;;;;;;;5.82;1.80;;;;;;;16.15;100.00;96259.81;5036838;28;20661;-73
2022/10/24 10:13:18;;;;;;;8.85;1.88;;;;;;;16.24;100.00;96255.91;5037864;28;20592;-72
2022/10/24 10:15:49;;;;;;;8.35;2.60;;;;;;;16.17;100.00;96239.19;5038729;28;20286;-75
2022/10/24 10:18:34;;;;;;;6.40;2.78;;;;;;;16.19;100.00;96229.13;5038064;28;20205;-72
2022/10/24 10:21:12;;;;;;;11.70;2.67;;;;;;;15.88;100.00;96218.41;5037856;28;20205;-72
2022/10/24 10:23:41;;;;;;;8.15;2.08;;;;;;;15.90;100.00;96238.44;5036907;28;20224;-72
2022/10/24 10:26:23;;;;;;;7.88;1.77;;;;;;;15.88;100.00;96219.25;5037363;28;20705;-72
2022/10/24 10:28:59;;;;;;;8.30;1.50;;;;;;;15.84;100.00;96207.38;5037757;28;20284;-72
2022/10/24 10:31:34;;;;;;;6.80;1.75;;;;;;;15.63;100.00;96209.50;5038078;28;20657;-72
2022/10/24 10:34:19;;;;;;;8.32;1.40;;;;;;;15.68;100.00;96224.81;5037100;28;20231;-72
2022/10/24 10:37:03;;;;;;;7.40;1.83;;;;;;;15.68;100.00;96235.44;5036882;28;20197;-72
2022/10/24 10:39:45;;;;;;;5.75;1.90;;;;;;;15.51;100.00;96235.06;5036570;28;20201;-72
2022/10/24 10:42:17;;;;;;;4.13;1.40;;;;;;;15.44;100.00;96244.06;5036692;28;20308;-72
2022/10/24 10:45:07;;;;;;;2.78;1.10;;;;;;;15.50;100.00;96240.59;5036727;28;20205;-73
2022/10/24 10:47:46;;;;;;;6.05;1.70;;;;;;;15.51;100.00;96276.75;5036337;28;20598;-72
2022/10/24 10:50:25;;;;;;;3.88;1.20;;;;;;;15.57;100.00;96290.03;5036846;28;20689;-72
2022/10/24 10:52:58;;;;;;;2.47;1.45;;;;;;;15.54;100.00;96294.94;5035652;28;20224;-73
2022/10/24 10:55:35;;;;;;;4.63;1.90;;;;;;;15.59;100.00;96297.78;5036615;28;20199;-72
2022/10/24 10:58:17;;;;;;;3.15;1.30;;;;;;;15.66;100.00;96303.91;5037593;28;20200;-73
2022/10/24 11:00:52;;;;;;;4.00;1.70;;;;;;;15.50;100.00;96304.31;5040919;28;20205;-73
2022/10/24 11:03:30;;;;;;;4.10;1.40;;;;;;;15.54;100.00;96301.06;5039809;28;20220;-72
2022/10/24 11:06:06;;;;;;;5.53;2.00;;;;;;;15.58;100.00;96304.94;5040156;28;20201;-73
2022/10/24 11:08:56;;;;;;;8.80;2.70;;;;;;;15.49;100.00;96306.19;5040786;28;20212;-73
2022/10/24 11:11:27;;;;;;;4.53;2.10;;;;;;;15.33;100.00;96303.91;5040232;28;20232;-73
2022/10/24 11:14:02;;;;;;;7.68;2.20;;;;;;;15.37;100.00;96322.94;5039631;28;20229;-73
2022/10/24 11:16:30;;;;;;;5.72;1.70;;;;;;;15.40;100.00;96320.69;5040341;28;20193;-72
2022/10/24 11:19:01;;;;;;;5.47;1.65;;;;;;;15.45;100.00;96317.41;5040018;28;20202;-73
2022/10/24 11:21:32;;;;;;;7.65;1.92;;;;;;;15.29;100.00;96310.66;5040108;28;20220;-73
2022/10/24 11:24:03;;;;;;;6.38;2.38;;;;;;;15.44;100.00;96290.03;5039091;28;20225;-73
2022/10/24 11:26:33;;;;;;;6.65;2.50;;;;;;;15.32;100.00;96274.94;5039922;28;20205;-73
2022/10/24 11:29:09;;;;;;;3.15;1.55;;;;;;;15.43;100.00;96248.56;5040210;28;20205;-72
2022/10/24 11:31:40;;;;;;;4.18;1.63;;;;;;;15.51;100.00;96236.91;5040136;28;20208;-73
2022/10/24 11:34:14;;;;;;;4.50;1.05;;;;;;;15.48;100.00;96232.84;5039356;28;20221;-73